sensor_id;sensor_type;location;lat;lon;timestamp;temperature;humidity
57833;DHT22;43667;53.036;6.740;2023-09-30T00:00:45;10.90;99.90
57833;DHT22;43667;53.036;6.740;2023-09-30T00:03:11;10.90;99.90
57833;DHT22;43667;53.036;6.740;2023-09-30T00:05:37;10.90;99.90
57833;DHT22;43667;53.036;6.740;2023-09-30T00:08:04;10.90;99.90
57833;DHT22;43667;53.036;6.740;2023-09-30T00:10:30;10.80;99.90
57833;DHT22;43667;53.036;6.740;2023-09-30T00:12:57;10.80;99.90
57833;DHT22;43667;53.036;6.740;2023-09-30T00:15:22;10.80;99.90
57833;DHT22;43667;53.036;6.740;2023-09-30T00:17:49;10.80;99.90
57833;DHT22;43667;53.036;6.740;2023-09-30T00:20:14;10.80;99.90
57833;DHT22;43667;53.036;6.740;2023-09-30T00:22:41;10.80;99.90
57833;DHT22;43667;53.036;6.740;2023-09-30T00:25:07;10.80;99.90
57833;DHT22;43667;53.036;6.740;2023-09-30T00:27:32;10.80;99.90
57833;DHT22;43667;53.036;6.740;2023-09-30T00:30:00;10.80;99.90
57833;DHT22;43667;53.036;6.740;2023-09-30T00:32:25;10.80;99.90
57833;DHT22;43667;53.036;6.740;2023-09-30T00:34:51;10.80;99.90
57833;DHT22;43667;53.036;6.740;2023-09-30T00:37:18;10.80;99.90
57833;DHT22;43667;53.036;6.740;2023-09-30T00:39:43;10.80;99.90
57833;DHT22;43667;53.036;6.740;2023-09-30T00:42:10;10.70;99.90
57833;DHT22;43667;53.036;6.740;2023-09-30T00:44:36;10.80;99.90
57833;DHT22;43667;53.036;6.740;2023-09-30T00:47:02;10.70;99.90
57833;DHT22;43667;53.036;6.740;2023-09-30T00:49:28;10.70;99.90
57833;DHT22;43667;53.036;6.740;2023-09-30T00:51:54;10.70;99.90
57833;DHT22;43667;53.036;6.740;2023-09-30T00:54:21;10.80;99.90
57833;DHT22;43667;53.036;6.740;2023-09-30T00:56:50;10.80;99.90
57833;DHT22;43667;53.036;6.740;2023-09-30T00:59:17;10.80;99.90
57833;DHT22;43667;53.036;6.740;2023-09-30T01:01:44;10.80;99.90
57833;DHT22;43667;53.036;6.740;2023-09-30T01:04:13;10.80;99.90
57833;DHT22;43667;53.036;6.740;2023-09-30T01:06:40;10.80;99.90
57833;DHT22;43667;53.036;6.740;2023-09-30T01:09:07;10.80;99.90
57833;DHT22;43667;53.036;6.740;2023-09-30T01:11:32;10.80;99.90
57833;DHT22;43667;53.036;6.740;2023-09-30T01:13:58;10.80;99.90
57833;DHT22;43667;53.036;6.740;2023-09-30T01:16:24;10.80;99.90
57833;DHT22;43667;53.036;6.740;2023-09-30T01:18:50;10.80;99.90
57833;DHT22;43667;53.036;6.740;2023-09-30T01:21:16;10.80;99.90
57833;DHT22;43667;53.036;6.740;2023-09-30T01:23:43;10.80;99.90
57833;DHT22;43667;53.036;6.740;2023-09-30T01:26:11;10.90;99.90
57833;DHT22;43667;53.036;6.740;2023-09-30T01:28:38;10.90;99.90
57833;DHT22;43667;53.036;6.740;2023-09-30T01:31:04;10.90;99.90
57833;DHT22;43667;53.036;6.740;2023-09-30T01:33:30;10.90;99.90
57833;DHT22;43667;53.036;6.740;2023-09-30T01:35:57;10.90;99.90
57833;DHT22;43667;53.036;6.740;2023-09-30T01:38:23;10.90;99.90
57833;DHT22;43667;53.036;6.740;2023-09-30T01:40:49;10.90;99.90
57833;DHT22;43667;53.036;6.740;2023-09-30T01:43:14;10.90;99.90
57833;DHT22;43667;53.036;6.740;2023-09-30T01:45:41;10.90;99.90
57833;DHT22;43667;53.036;6.740;2023-09-30T01:48:07;10.90;99.90
57833;DHT22;43667;53.036;6.740;2023-09-30T01:50:39;10.90;99.90
57833;DHT22;43667;53.036;6.740;2023-09-30T01:53:06;10.90;99.90
57833;DHT22;43667;53.036;6.740;2023-09-30T01:55:33;10.90;99.90
57833;DHT22;43667;53.036;6.740;2023-09-30T01:57:59;10.90;99.90
57833;DHT22;43667;53.036;6.740;2023-09-30T02:00:24;10.90;99.90
57833;DHT22;43667;53.036;6.740;2023-09-30T02:02:50;10.90;99.90
57833;DHT22;43667;53.036;6.740;2023-09-30T02:05:16;10.90;99.90
57833;DHT22;43667;53.036;6.740;2023-09-30T02:07:42;10.80;99.90
57833;DHT22;43667;53.036;6.740;2023-09-30T02:10:08;10.80;99.90
57833;DHT22;43667;53.036;6.740;2023-09-30T02:12:34;10.90;99.90
57833;DHT22;43667;53.036;6.740;2023-09-30T02:14:59;10.90;99.90
57833;DHT22;43667;53.036;6.740;2023-09-30T02:17:25;10.90;99.90
57833;DHT22;43667;53.036;6.740;2023-09-30T02:19:50;10.90;99.90
57833;DHT22;43667;53.036;6.740;2023-09-30T02:22:16;11.00;99.90
57833;DHT22;43667;53.036;6.740;2023-09-30T02:24:41;11.00;99.90
57833;DHT22;43667;53.036;6.740;2023-09-30T02:27:07;11.00;99.90
57833;DHT22;43667;53.036;6.740;2023-09-30T02:29:33;11.00;99.90
57833;DHT22;43667;53.036;6.740;2023-09-30T02:31:59;11.00;99.90
57833;DHT22;43667;53.036;6.740;2023-09-30T02:34:25;11.00;99.90
57833;DHT22;43667;53.036;6.740;2023-09-30T02:36:51;11.00;99.90
57833;DHT22;43667;53.036;6.740;2023-09-30T02:39:17;11.00;99.90
57833;DHT22;43667;53.036;6.740;2023-09-30T02:41:43;11.10;99.90
57833;DHT22;43667;53.036;6.740;2023-09-30T02:44:09;11.10;99.90
57833;DHT22;43667;53.036;6.740;2023-09-30T02:46:34;11.10;99.90
57833;DHT22;43667;53.036;6.740;2023-09-30T02:49:03;11.10;99.90
57833;DHT22;43667;53.036;6.740;2023-09-30T02:51:29;11.10;99.90
57833;DHT22;43667;53.036;6.740;2023-09-30T02:53:55;11.10;99.90
57833;DHT22;43667;53.036;6.740;2023-09-30T02:56:21;11.10;99.90
57833;DHT22;43667;53.036;6.740;2023-09-30T02:58:50;11.10;99.90
57833;DHT22;43667;53.036;6.740;2023-09-30T03:01:17;11.10;99.90
57833;DHT22;43667;53.036;6.740;2023-09-30T03:03:43;11.20;99.90
57833;DHT22;43667;53.036;6.740;2023-09-30T03:06:11;11.20;99.90
57833;DHT22;43667;53.036;6.740;2023-09-30T03:08:37;11.20;99.90
57833;DHT22;43667;53.036;6.740;2023-09-30T03:11:03;11.30;99.90
57833;DHT22;43667;53.036;6.740;2023-09-30T03:13:30;11.30;99.90
57833;DHT22;43667;53.036;6.740;2023-09-30T03:15:56;11.40;99.90
57833;DHT22;43667;53.036;6.740;2023-09-30T03:18:22;11.30;99.90
57833;DHT22;43667;53.036;6.740;2023-09-30T03:20:52;11.30;99.90
57833;DHT22;43667;53.036;6.740;2023-09-30T03:23:22;11.40;99.90
57833;DHT22;43667;53.036;6.740;2023-09-30T03:25:48;11.30;99.90
57833;DHT22;43667;53.036;6.740;2023-09-30T03:28:13;11.30;99.90
57833;DHT22;43667;53.036;6.740;2023-09-30T03:30:40;11.30;99.90
57833;DHT22;43667;53.036;6.740;2023-09-30T03:33:06;11.30;99.90
57833;DHT22;43667;53.036;6.740;2023-09-30T03:35:31;11.30;99.90
57833;DHT22;43667;53.036;6.740;2023-09-30T03:37:57;11.30;99.90
57833;DHT22;43667;53.036;6.740;2023-09-30T03:40:23;11.30;99.90
57833;DHT22;43667;53.036;6.740;2023-09-30T03:42:54;11.30;99.90
57833;DHT22;43667;53.036;6.740;2023-09-30T03:45:23;11.30;99.90
57833;DHT22;43667;53.036;6.740;2023-09-30T03:47:49;11.30;99.90
57833;DHT22;43667;53.036;6.740;2023-09-30T03:50:15;11.40;99.90
57833;DHT22;43667;53.036;6.740;2023-09-30T03:52:42;11.40;99.90
57833;DHT22;43667;53.036;6.740;2023-09-30T03:55:12;11.40;99.90
57833;DHT22;43667;53.036;6.740;2023-09-30T03:57:40;11.40;99.90
57833;DHT22;43667;53.036;6.740;2023-09-30T04:00:06;11.40;99.90
57833;DHT22;43667;53.036;6.740;2023-09-30T04:02:35;11.40;99.90
57833;DHT22;43667;53.036;6.740;2023-09-30T04:05:01;11.40;99.90
57833;DHT22;43667;53.036;6.740;2023-09-30T04:07:31;11.40;99.90
57833;DHT22;43667;53.036;6.740;2023-09-30T04:09:56;11.40;99.90
57833;DHT22;43667;53.036;6.740;2023-09-30T04:12:22;11.30;99.90
57833;DHT22;43667;53.036;6.740;2023-09-30T04:14:51;11.30;99.90
57833;DHT22;43667;53.036;6.740;2023-09-30T04:17:17;11.20;99.90
57833;DHT22;43667;53.036;6.740;2023-09-30T04:19:43;11.20;99.90
57833;DHT22;43667;53.036;6.740;2023-09-30T04:22:08;11.20;99.90
57833;DHT22;43667;53.036;6.740;2023-09-30T04:24:34;11.20;99.90
57833;DHT22;43667;53.036;6.740;2023-09-30T04:27:00;11.20;99.90
57833;DHT22;43667;53.036;6.740;2023-09-30T04:29:29;11.20;99.90
57833;DHT22;43667;53.036;6.740;2023-09-30T04:31:56;11.20;99.90
57833;DHT22;43667;53.036;6.740;2023-09-30T04:34:21;11.20;99.90
57833;DHT22;43667;53.036;6.740;2023-09-30T04:36:47;11.20;99.90
57833;DHT22;43667;53.036;6.740;2023-09-30T04:39:13;11.20;99.90
57833;DHT22;43667;53.036;6.740;2023-09-30T04:41:40;11.20;99.90
57833;DHT22;43667;53.036;6.740;2023-09-30T04:44:09;11.20;99.90
57833;DHT22;43667;53.036;6.740;2023-09-30T04:46:36;11.20;99.90
57833;DHT22;43667;53.036;6.740;2023-09-30T04:49:07;11.20;99.90
57833;DHT22;43667;53.036;6.740;2023-09-30T04:51:33;11.10;99.90
57833;DHT22;43667;53.036;6.740;2023-09-30T04:53:58;11.10;99.90
57833;DHT22;43667;53.036;6.740;2023-09-30T04:56:25;11.10;99.90
57833;DHT22;43667;53.036;6.740;2023-09-30T04:58:51;11.10;99.90
57833;DHT22;43667;53.036;6.740;2023-09-30T05:01:17;11.10;99.90
57833;DHT22;43667;53.036;6.740;2023-09-30T05:03:46;11.10;99.90
57833;DHT22;43667;53.036;6.740;2023-09-30T05:06:15;11.00;99.90
57833;DHT22;43667;53.036;6.740;2023-09-30T05:08:40;11.00;99.90
57833;DHT22;43667;53.036;6.740;2023-09-30T05:11:07;11.10;99.90
57833;DHT22;43667;53.036;6.740;2023-09-30T05:13:32;11.00;99.90
57833;DHT22;43667;53.036;6.740;2023-09-30T05:15:59;11.00;99.90
57833;DHT22;43667;53.036;6.740;2023-09-30T05:18:25;11.00;99.90
57833;DHT22;43667;53.036;6.740;2023-09-30T05:20:51;11.00;99.90
57833;DHT22;43667;53.036;6.740;2023-09-30T05:23:16;10.90;99.90
57833;DHT22;43667;53.036;6.740;2023-09-30T05:25:43;11.00;99.90
57833;DHT22;43667;53.036;6.740;2023-09-30T05:28:08;11.00;99.90
57833;DHT22;43667;53.036;6.740;2023-09-30T05:30:35;10.90;99.90
57833;DHT22;43667;53.036;6.740;2023-09-30T05:33:01;10.90;99.90
57833;DHT22;43667;53.036;6.740;2023-09-30T05:35:26;10.90;99.90
57833;DHT22;43667;53.036;6.740;2023-09-30T05:37:53;10.90;99.90
57833;DHT22;43667;53.036;6.740;2023-09-30T05:40:20;10.90;99.90
57833;DHT22;43667;53.036;6.740;2023-09-30T05:42:54;10.80;99.90
57833;DHT22;43667;53.036;6.740;2023-09-30T05:45:22;10.80;99.90
57833;DHT22;43667;53.036;6.740;2023-09-30T05:47:49;10.80;99.90
57833;DHT22;43667;53.036;6.740;2023-09-30T05:50:15;10.80;99.90
57833;DHT22;43667;53.036;6.740;2023-09-30T05:52:41;10.80;99.90
57833;DHT22;43667;53.036;6.740;2023-09-30T05:55:07;10.70;99.90
57833;DHT22;43667;53.036;6.740;2023-09-30T05:57:33;10.70;99.90
57833;DHT22;43667;53.036;6.740;2023-09-30T05:59:59;10.70;99.90
57833;DHT22;43667;53.036;6.740;2023-09-30T06:02:24;10.70;99.90
57833;DHT22;43667;53.036;6.740;2023-09-30T06:04:50;10.80;99.90
57833;DHT22;43667;53.036;6.740;2023-09-30T06:07:18;10.70;99.90
57833;DHT22;43667;53.036;6.740;2023-09-30T06:09:45;10.70;99.90
57833;DHT22;43667;53.036;6.740;2023-09-30T06:12:12;10.80;99.90
57833;DHT22;43667;53.036;6.740;2023-09-30T06:14:38;10.70;99.90
57833;DHT22;43667;53.036;6.740;2023-09-30T06:17:03;10.70;99.90
57833;DHT22;43667;53.036;6.740;2023-09-30T06:19:29;10.70;99.90
57833;DHT22;43667;53.036;6.740;2023-09-30T06:21:55;10.70;99.90
57833;DHT22;43667;53.036;6.740;2023-09-30T06:24:22;10.70;99.90
57833;DHT22;43667;53.036;6.740;2023-09-30T06:26:47;10.80;99.90
57833;DHT22;43667;53.036;6.740;2023-09-30T06:29:14;10.80;99.90
57833;DHT22;43667;53.036;6.740;2023-09-30T06:31:40;10.80;99.90
57833;DHT22;43667;53.036;6.740;2023-09-30T06:34:06;10.80;99.90
57833;DHT22;43667;53.036;6.740;2023-09-30T06:36:32;10.90;99.90
57833;DHT22;43667;53.036;6.740;2023-09-30T06:38:58;10.90;99.90
57833;DHT22;43667;53.036;6.740;2023-09-30T06:41:24;10.90;99.90
57833;DHT22;43667;53.036;6.740;2023-09-30T06:43:51;11.00;99.90
57833;DHT22;43667;53.036;6.740;2023-09-30T06:46:17;11.00;99.90
57833;DHT22;43667;53.036;6.740;2023-09-30T06:48:43;11.10;99.90
57833;DHT22;43667;53.036;6.740;2023-09-30T06:51:18;11.20;99.90
57833;DHT22;43667;53.036;6.740;2023-09-30T06:53:44;11.20;99.90
57833;DHT22;43667;53.036;6.740;2023-09-30T06:56:11;11.30;99.90
57833;DHT22;43667;53.036;6.740;2023-09-30T06:58:38;11.40;99.90
57833;DHT22;43667;53.036;6.740;2023-09-30T07:01:03;11.40;99.90
57833;DHT22;43667;53.036;6.740;2023-09-30T07:03:29;11.50;99.90
57833;DHT22;43667;53.036;6.740;2023-09-30T07:05:56;11.60;99.90
57833;DHT22;43667;53.036;6.740;2023-09-30T07:08:22;11.70;99.90
57833;DHT22;43667;53.036;6.740;2023-09-30T07:10:48;11.80;99.90
57833;DHT22;43667;53.036;6.740;2023-09-30T07:13:18;11.90;99.90
57833;DHT22;43667;53.036;6.740;2023-09-30T07:15:43;12.00;99.90
57833;DHT22;43667;53.036;6.740;2023-09-30T07:18:09;12.00;99.90
57833;DHT22;43667;53.036;6.740;2023-09-30T07:20:35;12.20;99.90
57833;DHT22;43667;53.036;6.740;2023-09-30T07:23:01;12.30;99.90
57833;DHT22;43667;53.036;6.740;2023-09-30T07:25:27;12.40;99.90
57833;DHT22;43667;53.036;6.740;2023-09-30T07:27:53;12.40;99.90
57833;DHT22;43667;53.036;6.740;2023-09-30T07:30:18;12.60;99.90
57833;DHT22;43667;53.036;6.740;2023-09-30T07:32:45;12.70;99.90
57833;DHT22;43667;53.036;6.740;2023-09-30T07:35:11;12.80;99.90
57833;DHT22;43667;53.036;6.740;2023-09-30T07:37:39;13.00;99.90
57833;DHT22;43667;53.036;6.740;2023-09-30T07:40:05;13.10;99.90
57833;DHT22;43667;53.036;6.740;2023-09-30T07:42:32;13.30;99.90
57833;DHT22;43667;53.036;6.740;2023-09-30T07:44:58;13.40;99.90
57833;DHT22;43667;53.036;6.740;2023-09-30T07:47:24;13.50;99.90
57833;DHT22;43667;53.036;6.740;2023-09-30T07:49:49;13.70;99.90
57833;DHT22;43667;53.036;6.740;2023-09-30T07:52:15;13.80;99.90
57833;DHT22;43667;53.036;6.740;2023-09-30T07:54:41;14.00;99.90
57833;DHT22;43667;53.036;6.740;2023-09-30T07:57:07;14.10;99.90
57833;DHT22;43667;53.036;6.740;2023-09-30T07:59:33;14.20;99.90
57833;DHT22;43667;53.036;6.740;2023-09-30T08:01:59;14.30;99.90
57833;DHT22;43667;53.036;6.740;2023-09-30T08:04:24;14.40;99.90
57833;DHT22;43667;53.036;6.740;2023-09-30T08:06:50;14.60;99.90
57833;DHT22;43667;53.036;6.740;2023-09-30T08:09:19;14.60;99.90
57833;DHT22;43667;53.036;6.740;2023-09-30T08:11:45;14.70;99.90
57833;DHT22;43667;53.036;6.740;2023-09-30T08:14:10;14.80;99.90
57833;DHT22;43667;53.036;6.740;2023-09-30T08:16:36;14.90;99.90
57833;DHT22;43667;53.036;6.740;2023-09-30T08:19:03;15.10;99.90
57833;DHT22;43667;53.036;6.740;2023-09-30T08:21:29;15.20;99.90
57833;DHT22;43667;53.036;6.740;2023-09-30T08:23:55;15.40;99.90
57833;DHT22;43667;53.036;6.740;2023-09-30T08:26:21;15.40;99.90
57833;DHT22;43667;53.036;6.740;2023-09-30T08:28:47;15.50;99.90
57833;DHT22;43667;53.036;6.740;2023-09-30T08:31:13;15.60;99.90
57833;DHT22;43667;53.036;6.740;2023-09-30T08:33:39;15.80;99.90
57833;DHT22;43667;53.036;6.740;2023-09-30T08:36:07;15.90;99.90
57833;DHT22;43667;53.036;6.740;2023-09-30T08:38:37;16.00;99.90
57833;DHT22;43667;53.036;6.740;2023-09-30T08:41:04;16.10;99.90
57833;DHT22;43667;53.036;6.740;2023-09-30T08:43:30;16.20;99.90
57833;DHT22;43667;53.036;6.740;2023-09-30T08:45:58;16.30;99.90
57833;DHT22;43667;53.036;6.740;2023-09-30T08:48:26;16.40;99.90
57833;DHT22;43667;53.036;6.740;2023-09-30T08:50:53;16.60;99.90
57833;DHT22;43667;53.036;6.740;2023-09-30T08:53:23;16.60;99.90
57833;DHT22;43667;53.036;6.740;2023-09-30T08:55:53;16.70;99.90
57833;DHT22;43667;53.036;6.740;2023-09-30T08:58:19;16.80;99.90
57833;DHT22;43667;53.036;6.740;2023-09-30T09:00:48;16.90;99.90
57833;DHT22;43667;53.036;6.740;2023-09-30T09:03:14;17.00;99.90
57833;DHT22;43667;53.036;6.740;2023-09-30T09:05:39;17.10;99.90
57833;DHT22;43667;53.036;6.740;2023-09-30T09:08:06;17.20;99.90
57833;DHT22;43667;53.036;6.740;2023-09-30T09:10:31;17.20;99.90
57833;DHT22;43667;53.036;6.740;2023-09-30T09:12:58;17.30;99.90
57833;DHT22;43667;53.036;6.740;2023-09-30T09:15:28;17.40;99.90
57833;DHT22;43667;53.036;6.740;2023-09-30T09:17:54;17.60;99.90
57833;DHT22;43667;53.036;6.740;2023-09-30T09:20:22;17.70;99.90
57833;DHT22;43667;53.036;6.740;2023-09-30T09:22:51;17.90;99.90
57833;DHT22;43667;53.036;6.740;2023-09-30T09:25:19;17.90;99.90
57833;DHT22;43667;53.036;6.740;2023-09-30T09:27:45;18.00;99.90
57833;DHT22;43667;53.036;6.740;2023-09-30T09:30:18;18.00;99.90
57833;DHT22;43667;53.036;6.740;2023-09-30T09:33:00;18.10;99.90
57833;DHT22;43667;53.036;6.740;2023-09-30T09:35:26;18.30;99.90
57833;DHT22;43667;53.036;6.740;2023-09-30T09:37:57;18.40;99.90
57833;DHT22;43667;53.036;6.740;2023-09-30T09:40:24;18.60;99.90
57833;DHT22;43667;53.036;6.740;2023-09-30T09:42:51;18.60;99.90
57833;DHT22;43667;53.036;6.740;2023-09-30T09:45:24;18.70;99.90
57833;DHT22;43667;53.036;6.740;2023-09-30T09:47:50;18.80;99.90
57833;DHT22;43667;53.036;6.740;2023-09-30T09:50:18;18.90;99.90
57833;DHT22;43667;53.036;6.740;2023-09-30T09:52:47;18.90;99.90
57833;DHT22;43667;53.036;6.740;2023-09-30T09:55:15;19.00;99.90
57833;DHT22;43667;53.036;6.740;2023-09-30T09:57:41;19.10;99.90
57833;DHT22;43667;53.036;6.740;2023-09-30T10:00:17;19.10;99.90
57833;DHT22;43667;53.036;6.740;2023-09-30T10:02:45;19.30;99.90
57833;DHT22;43667;53.036;6.740;2023-09-30T10:05:12;19.40;99.90
57833;DHT22;43667;53.036;6.740;2023-09-30T10:07:57;19.50;99.90
57833;DHT22;43667;53.036;6.740;2023-09-30T10:10:26;19.70;99.90
57833;DHT22;43667;53.036;6.740;2023-09-30T10:12:53;19.80;99.90
57833;DHT22;43667;53.036;6.740;2023-09-30T10:15:39;20.00;99.90
57833;DHT22;43667;53.036;6.740;2023-09-30T10:18:12;20.20;99.90
57833;DHT22;43667;53.036;6.740;2023-09-30T10:20:39;20.30;99.90
57833;DHT22;43667;53.036;6.740;2023-09-30T10:23:24;20.40;99.90
57833;DHT22;43667;53.036;6.740;2023-09-30T10:38:57;20.30;99.90
57833;DHT22;43667;53.036;6.740;2023-09-30T10:49:46;20.30;99.90
57833;DHT22;43667;53.036;6.740;2023-09-30T10:52:24;20.40;99.90
57833;DHT22;43667;53.036;6.740;2023-09-30T10:54:51;20.50;99.90
57833;DHT22;43667;53.036;6.740;2023-09-30T10:57:43;20.30;99.90
57833;DHT22;43667;53.036;6.740;2023-09-30T11:00:11;20.00;99.90
57833;DHT22;43667;53.036;6.740;2023-09-30T11:02:50;20.00;99.90
57833;DHT22;43667;53.036;6.740;2023-09-30T11:05:17;20.10;99.90
57833;DHT22;43667;53.036;6.740;2023-09-30T11:07:45;20.40;99.90
57833;DHT22;43667;53.036;6.740;2023-09-30T11:10:16;20.70;99.90
57833;DHT22;43667;53.036;6.740;2023-09-30T11:12:54;20.90;99.90
57833;DHT22;43667;53.036;6.740;2023-09-30T11:15:19;21.10;99.90
57833;DHT22;43667;53.036;6.740;2023-09-30T11:17:45;21.30;99.90
57833;DHT22;43667;53.036;6.740;2023-09-30T11:20:11;21.50;99.90
57833;DHT22;43667;53.036;6.740;2023-09-30T11:22:36;21.60;99.90
57833;DHT22;43667;53.036;6.740;2023-09-30T11:25:02;21.80;99.90
57833;DHT22;43667;53.036;6.740;2023-09-30T11:27:28;21.90;99.90
57833;DHT22;43667;53.036;6.740;2023-09-30T11:29:56;22.00;99.90
57833;DHT22;43667;53.036;6.740;2023-09-30T11:32:27;22.00;99.90
57833;DHT22;43667;53.036;6.740;2023-09-30T11:34:54;21.90;99.90
57833;DHT22;43667;53.036;6.740;2023-09-30T11:37:20;21.90;99.90
57833;DHT22;43667;53.036;6.740;2023-09-30T11:39:47;21.80;99.20
57833;DHT22;43667;53.036;6.740;2023-09-30T11:42:17;21.70;98.20
57833;DHT22;43667;53.036;6.740;2023-09-30T11:44:46;21.60;98.00
57833;DHT22;43667;53.036;6.740;2023-09-30T11:47:13;21.40;98.10
57833;DHT22;43667;53.036;6.740;2023-09-30T11:49:42;21.20;99.50
57833;DHT22;43667;53.036;6.740;2023-09-30T11:52:14;21.00;99.90
57833;DHT22;43667;53.036;6.740;2023-09-30T11:54:42;20.80;99.60
57833;DHT22;43667;53.036;6.740;2023-09-30T11:57:09;20.60;99.90
57833;DHT22;43667;53.036;6.740;2023-09-30T11:59:36;20.50;99.90
57833;DHT22;43667;53.036;6.740;2023-09-30T12:02:02;20.30;99.90
57833;DHT22;43667;53.036;6.740;2023-09-30T12:04:29;20.20;99.90
57833;DHT22;43667;53.036;6.740;2023-09-30T12:06:55;20.00;99.90
57833;DHT22;43667;53.036;6.740;2023-09-30T12:09:20;19.90;99.90
57833;DHT22;43667;53.036;6.740;2023-09-30T12:11:54;19.90;99.90
57833;DHT22;43667;53.036;6.740;2023-09-30T12:14:22;19.90;99.90
57833;DHT22;43667;53.036;6.740;2023-09-30T12:16:48;20.00;99.90
57833;DHT22;43667;53.036;6.740;2023-09-30T12:19:14;20.00;99.90
57833;DHT22;43667;53.036;6.740;2023-09-30T12:21:41;20.10;99.90
57833;DHT22;43667;53.036;6.740;2023-09-30T12:24:08;20.30;99.90
57833;DHT22;43667;53.036;6.740;2023-09-30T12:26:35;20.60;99.90
57833;DHT22;43667;53.036;6.740;2023-09-30T12:29:03;20.70;99.90
57833;DHT22;43667;53.036;6.740;2023-09-30T12:31:29;21.00;99.10
57833;DHT22;43667;53.036;6.740;2023-09-30T12:33:55;21.00;98.00
57833;DHT22;43667;53.036;6.740;2023-09-30T12:36:21;21.10;97.90
57833;DHT22;43667;53.036;6.740;2023-09-30T12:38:47;21.00;95.50
57833;DHT22;43667;53.036;6.740;2023-09-30T12:41:13;20.90;96.20
57833;DHT22;43667;53.036;6.740;2023-09-30T12:43:39;20.70;98.70
57833;DHT22;43667;53.036;6.740;2023-09-30T12:46:10;20.50;99.80
57833;DHT22;43667;53.036;6.740;2023-09-30T12:48:39;20.40;99.90
57833;DHT22;43667;53.036;6.740;2023-09-30T12:51:04;20.20;99.90
57833;DHT22;43667;53.036;6.740;2023-09-30T12:53:34;20.10;99.90
57833;DHT22;43667;53.036;6.740;2023-09-30T12:56:00;20.10;99.90
57833;DHT22;43667;53.036;6.740;2023-09-30T12:58:26;20.10;99.90
57833;DHT22;43667;53.036;6.740;2023-09-30T13:00:55;20.00;99.90
57833;DHT22;43667;53.036;6.740;2023-09-30T13:03:20;20.00;99.90
57833;DHT22;43667;53.036;6.740;2023-09-30T13:05:46;20.00;99.90
57833;DHT22;43667;53.036;6.740;2023-09-30T13:08:11;20.00;99.90
57833;DHT22;43667;53.036;6.740;2023-09-30T13:10:37;20.10;99.90
57833;DHT22;43667;53.036;6.740;2023-09-30T13:13:04;20.10;99.90
57833;DHT22;43667;53.036;6.740;2023-09-30T13:15:29;20.30;99.90
57833;DHT22;43667;53.036;6.740;2023-09-30T13:17:55;20.30;99.90
57833;DHT22;43667;53.036;6.740;2023-09-30T13:20:20;20.40;99.90
57833;DHT22;43667;53.036;6.740;2023-09-30T13:22:46;20.40;99.90
57833;DHT22;43667;53.036;6.740;2023-09-30T13:25:12;20.40;99.90
57833;DHT22;43667;53.036;6.740;2023-09-30T13:27:39;20.50;99.90
57833;DHT22;43667;53.036;6.740;2023-09-30T13:30:08;20.50;99.90
57833;DHT22;43667;53.036;6.740;2023-09-30T13:32:35;20.50;99.90
57833;DHT22;43667;53.036;6.740;2023-09-30T13:35:06;20.50;99.90
57833;DHT22;43667;53.036;6.740;2023-09-30T13:37:33;20.50;99.90
57833;DHT22;43667;53.036;6.740;2023-09-30T13:40:00;20.40;99.90
57833;DHT22;43667;53.036;6.740;2023-09-30T13:42:27;20.50;99.90
57833;DHT22;43667;53.036;6.740;2023-09-30T13:44:52;20.50;99.90
57833;DHT22;43667;53.036;6.740;2023-09-30T13:47:18;20.50;99.90
57833;DHT22;43667;53.036;6.740;2023-09-30T13:49:46;20.60;99.90
57833;DHT22;43667;53.036;6.740;2023-09-30T13:52:12;20.70;99.90
57833;DHT22;43667;53.036;6.740;2023-09-30T13:54:37;20.90;99.90
57833;DHT22;43667;53.036;6.740;2023-09-30T13:57:04;21.00;99.90
57833;DHT22;43667;53.036;6.740;2023-09-30T13:59:33;21.20;99.90
57833;DHT22;43667;53.036;6.740;2023-09-30T14:01:58;21.40;99.90
57833;DHT22;43667;53.036;6.740;2023-09-30T14:04:24;21.50;99.90
57833;DHT22;43667;53.036;6.740;2023-09-30T14:06:49;21.60;99.70
57833;DHT22;43667;53.036;6.740;2023-09-30T14:09:15;21.80;99.80
57833;DHT22;43667;53.036;6.740;2023-09-30T14:11:41;21.90;99.90
57833;DHT22;43667;53.036;6.740;2023-09-30T14:14:07;21.90;97.40
57833;DHT22;43667;53.036;6.740;2023-09-30T14:16:35;21.90;97.70
57833;DHT22;43667;53.036;6.740;2023-09-30T14:19:01;21.90;97.10
57833;DHT22;43667;53.036;6.740;2023-09-30T14:21:27;21.90;95.20
57833;DHT22;43667;53.036;6.740;2023-09-30T14:23:54;21.80;94.30
57833;DHT22;43667;53.036;6.740;2023-09-30T14:26:19;21.50;95.60
57833;DHT22;43667;53.036;6.740;2023-09-30T14:28:45;21.30;95.60
57833;DHT22;43667;53.036;6.740;2023-09-30T14:31:10;21.20;95.90
57833;DHT22;43667;53.036;6.740;2023-09-30T14:33:36;21.10;96.30
57833;DHT22;43667;53.036;6.740;2023-09-30T14:36:03;21.10;96.30
57833;DHT22;43667;53.036;6.740;2023-09-30T14:38:31;21.10;99.60
57833;DHT22;43667;53.036;6.740;2023-09-30T14:40:57;21.00;99.00
57833;DHT22;43667;53.036;6.740;2023-09-30T14:43:23;21.10;99.90
57833;DHT22;43667;53.036;6.740;2023-09-30T14:45:48;21.00;98.80
57833;DHT22;43667;53.036;6.740;2023-09-30T14:48:14;20.90;99.20
57833;DHT22;43667;53.036;6.740;2023-09-30T14:50:52;21.00;99.90
57833;DHT22;43667;53.036;6.740;2023-09-30T14:53:18;21.00;99.90
57833;DHT22;43667;53.036;6.740;2023-09-30T14:55:45;21.00;99.90
57833;DHT22;43667;53.036;6.740;2023-09-30T14:58:10;21.00;99.90
57833;DHT22;43667;53.036;6.740;2023-09-30T15:00:36;21.10;99.90
57833;DHT22;43667;53.036;6.740;2023-09-30T15:03:02;21.00;99.90
57833;DHT22;43667;53.036;6.740;2023-09-30T15:05:27;21.00;99.90
57833;DHT22;43667;53.036;6.740;2023-09-30T15:07:53;21.00;99.90
57833;DHT22;43667;53.036;6.740;2023-09-30T15:10:19;20.90;99.90
57833;DHT22;43667;53.036;6.740;2023-09-30T15:12:45;20.80;99.90
57833;DHT22;43667;53.036;6.740;2023-09-30T15:15:10;20.80;99.90
57833;DHT22;43667;53.036;6.740;2023-09-30T15:17:36;20.80;99.90
57833;DHT22;43667;53.036;6.740;2023-09-30T15:20:02;20.70;99.90
57833;DHT22;43667;53.036;6.740;2023-09-30T15:22:27;20.60;99.90
57833;DHT22;43667;53.036;6.740;2023-09-30T15:24:53;20.50;99.90
57833;DHT22;43667;53.036;6.740;2023-09-30T15:27:19;20.40;99.90
57833;DHT22;43667;53.036;6.740;2023-09-30T15:29:47;20.30;99.90
57833;DHT22;43667;53.036;6.740;2023-09-30T15:32:13;20.20;99.90
57833;DHT22;43667;53.036;6.740;2023-09-30T15:34:39;20.10;99.90
57833;DHT22;43667;53.036;6.740;2023-09-30T15:37:06;19.90;99.90
57833;DHT22;43667;53.036;6.740;2023-09-30T15:39:40;19.80;99.90
57833;DHT22;43667;53.036;6.740;2023-09-30T15:42:07;19.70;99.90
57833;DHT22;43667;53.036;6.740;2023-09-30T15:44:37;19.60;99.90
57833;DHT22;43667;53.036;6.740;2023-09-30T15:47:05;19.50;99.90
57833;DHT22;43667;53.036;6.740;2023-09-30T15:49:32;19.40;99.90